Time;durP1;ratioP1;P1;durP2;ratioP2;P2;SDS_P1;SDS_P2;PMS_P1;PMS_P2;Temp;Humidity;BMP_temperature;BMP_pressure;BME280_temperature;BME280_humidity;BME280_pressure;Samples;Min_cycle;Max_cycle;Signal;HPM_P1;HPM_P2
2022/04/21 00:01:10;;;;;;;78.93;41.47;;;4.00;99.90;;;;;;4438324;28;655955;-68
2022/04/21 00:03:58;;;;;;;83.27;42.30;;;4.10;99.90;;;;;;4442119;28;656098;-68
2022/04/21 00:06:45;;;;;;;84.30;43.70;;;4.10;99.90;;;;;;4443104;28;655415;-68
2022/04/21 00:09:33;;;;;;;86.10;43.83;;;4.10;99.90;;;;;;4448999;28;656499;-68
2022/04/21 00:12:22;;;;;;;82.27;42.23;;;4.10;99.90;;;;;;4446276;28;655785;-68
2022/04/21 00:15:11;;;;;;;78.97;42.00;;;4.00;99.90;;;;;;4445923;28;655707;-68
2022/04/21 00:17:58;;;;;;;76.30;40.72;;;4.00;99.90;;;;;;4422698;28;656082;-68
2022/04/21 00:20:46;;;;;;;79.17;40.83;;;4.00;99.90;;;;;;4440020;28;655372;-68
2022/04/21 00:23:33;;;;;;;74.93;39.93;;;4.00;99.90;;;;;;4468240;28;656152;-68
2022/04/21 00:26:20;;;;;;;76.65;40.80;;;4.00;99.90;;;;;;4441327;28;655600;-68
2022/04/21 00:29:09;;;;;;;78.20;40.63;;;4.00;99.90;;;;;;4459505;28;656561;-68
2022/04/21 00:31:57;;;;;;;89.00;43.53;;;4.00;99.90;;;;;;4431353;28;655362;-68
2022/04/21 00:34:44;;;;;;;78.90;41.67;;;4.00;99.90;;;;;;4466232;28;655375;-68
2022/04/21 00:37:32;;;;;;;81.67;40.97;;;4.00;99.90;;;;;;4436047;28;656310;-68
2022/04/21 00:40:20;;;;;;;78.43;42.27;;;4.00;99.90;;;;;;4450243;28;655697;-68
2022/04/21 00:43:07;;;;;;;75.50;42.17;;;3.90;99.90;;;;;;4428983;28;656053;-68
2022/04/21 00:45:56;;;;;;;81.67;41.37;;;4.00;99.90;;;;;;4450864;28;655825;-68
2022/04/21 00:48:43;;;;;;;74.10;40.10;;;3.90;99.90;;;;;;4427735;28;657111;-68
2022/04/21 00:51:31;;;;;;;75.28;38.90;;;3.80;99.90;;;;;;4431616;28;655202;-68
2022/04/21 00:54:18;;;;;;;78.50;40.70;;;3.80;99.90;;;;;;4459561;28;656448;-68
2022/04/21 00:57:06;;;;;;;80.13;41.80;;;3.80;99.90;;;;;;4432448;28;655450;-68
2022/04/21 00:59:53;;;;;;;78.73;41.57;;;3.80;99.90;;;;;;4448263;28;655559;-68
2022/04/21 01:02:49;;;;;;;82.17;42.53;;;3.80;99.90;;;;;;4431761;28;656010;-68
2022/04/21 01:05:36;;;;;;;85.65;44.33;;;3.80;99.90;;;;;;4402861;28;655896;-68
2022/04/21 01:08:24;;;;;;;87.80;44.47;;;3.80;99.90;;;;;;4446478;28;656243;-68
2022/04/21 01:11:11;;;;;;;91.43;45.13;;;3.80;99.90;;;;;;4420534;28;655519;-68
2022/04/21 01:13:59;;;;;;;81.23;43.20;;;3.80;99.90;;;;;;4446608;28;656100;-68
2022/04/21 01:16:46;;;;;;;88.60;45.10;;;3.80;99.90;;;;;;4428937;28;655189;-68
2022/04/21 01:19:35;;;;;;;92.87;47.03;;;3.80;99.90;;;;;;4445875;28;656512;-68
2022/04/21 01:22:24;;;;;;;91.03;45.67;;;3.80;99.90;;;;;;4430950;28;656778;-69
2022/04/21 01:25:11;;;;;;;90.07;47.10;;;3.80;99.90;;;;;;4436422;28;655567;-68
2022/04/21 01:27:59;;;;;;;89.03;46.73;;;3.80;99.90;;;;;;4460681;28;655381;-68
2022/04/21 01:30:47;;;;;;;84.87;46.40;;;3.80;99.90;;;;;;4436284;28;657417;-68
2022/04/21 01:33:34;;;;;;;91.03;47.13;;;3.90;99.90;;;;;;4463404;28;655190;-68
2022/04/21 01:36:21;;;;;;;88.73;46.63;;;3.90;99.90;;;;;;4439620;28;656219;-68
2022/04/21 01:42:15;;;;;;;83.00;42.33;;;3.90;99.90;;;;;;4423158;28;655671;-68
2022/04/21 01:45:03;;;;;;;94.20;44.63;;;4.00;99.90;;;;;;4456450;28;656384;-68
2022/04/21 01:47:50;;;;;;;84.17;43.47;;;4.00;99.90;;;;;;4452193;28;655465;-68
2022/04/21 01:50:38;;;;;;;80.87;42.97;;;4.00;99.90;;;;;;4445145;28;656493;-68
2022/04/21 01:53:25;;;;;;;93.03;44.00;;;4.00;99.90;;;;;;4439222;28;655553;-68
2022/04/21 01:56:14;;;;;;;80.07;43.30;;;4.00;99.90;;;;;;4447631;28;656262;-68
2022/04/21 01:59:02;;;;;;;77.03;42.43;;;4.00;99.90;;;;;;4425960;28;655392;-68
2022/04/21 02:01:49;;;;;;;73.43;40.87;;;4.00;99.90;;;;;;4444452;28;655887;-68
2022/04/21 02:04:36;;;;;;;80.33;41.90;;;4.00;99.90;;;;;;4434239;28;656648;-68
2022/04/21 02:07:24;;;;;;;86.67;43.30;;;3.90;99.90;;;;;;4448030;28;656503;-68
2022/04/21 02:10:11;;;;;;;85.53;43.13;;;3.90;99.90;;;;;;4428898;28;655627;-68
2022/04/21 02:13:00;;;;;;;87.03;43.80;;;3.90;99.90;;;;;;4447998;28;655258;-68
2022/04/21 02:15:48;;;;;;;91.57;44.23;;;3.90;99.90;;;;;;4425756;28;656010;-68
2022/04/21 02:18:35;;;;;;;83.80;43.03;;;3.90;99.90;;;;;;4442378;28;655786;-68
2022/04/21 02:21:23;;;;;;;87.93;43.87;;;3.80;99.90;;;;;;4445927;28;656805;-69
2022/04/21 02:24:11;;;;;;;83.33;44.63;;;3.80;99.90;;;;;;4450385;28;655233;-68
2022/04/21 02:26:58;;;;;;;81.70;42.97;;;3.80;99.90;;;;;;4452294;28;656352;-68
2022/04/21 02:29:48;;;;;;;90.40;43.25;;;3.90;99.90;;;;;;4435276;28;655773;-68
2022/04/21 02:32:35;;;;;;;88.37;44.77;;;3.80;99.90;;;;;;4443531;28;655469;-68
2022/04/21 02:35:23;;;;;;;85.53;44.40;;;3.80;99.90;;;;;;4455025;28;656552;-68
2022/04/21 02:38:10;;;;;;;84.63;43.87;;;3.80;99.90;;;;;;4440011;28;655091;-68
2022/04/21 02:40:58;;;;;;;89.30;44.37;;;3.80;99.90;;;;;;4451527;28;656602;-68
2022/04/21 02:43:45;;;;;;;95.20;45.73;;;3.80;99.90;;;;;;4445331;28;655979;-68
2022/04/21 02:46:34;;;;;;;90.47;46.43;;;3.80;99.90;;;;;;4452656;28;656312;-68
2022/04/21 02:49:22;;;;;;;89.43;45.47;;;3.90;99.90;;;;;;4433897;28;655856;-68
2022/04/21 02:52:09;;;;;;;88.40;44.40;;;3.80;99.90;;;;;;4447423;28;655688;-68
2022/04/21 02:58:02;;;;;;;91.03;44.27;;;3.80;99.90;;;;;;4425789;28;655935;-68
2022/04/21 03:00:49;;;;;;;85.07;43.60;;;3.70;99.90;;;;;;4455612;28;655985;-68
2022/04/21 03:03:38;;;;;;;82.30;40.73;;;3.70;99.90;;;;;;4424340;28;655858;-68
2022/04/21 03:06:25;;;;;;;79.27;41.43;;;3.60;99.90;;;;;;4427360;28;655974;-68
2022/04/21 03:09:13;;;;;;;87.47;41.70;;;3.60;99.90;;;;;;4447490;28;655884;-68
2022/04/21 03:12:03;;;;;;;78.00;42.23;;;3.60;99.90;;;;;;4438610;28;655842;-69
2022/04/21 03:14:51;;;;;;;81.50;42.83;;;3.60;99.90;;;;;;4430909;28;655484;-68
2022/04/21 03:17:38;;;;;;;78.87;41.40;;;3.50;99.90;;;;;;4451517;28;656716;-69
2022/04/21 03:26:47;;;;;;;83.80;41.63;;;3.40;99.90;;;;;;4425374;28;655346;-68
2022/04/21 03:29:37;;;;;;;82.97;42.70;;;3.40;99.90;;;;;;4452440;28;656984;-68
2022/04/21 03:32:25;;;;;;;89.90;43.90;;;3.40;99.90;;;;;;4430063;28;655700;-68
2022/04/21 03:35:12;;;;;;;88.33;42.33;;;3.40;99.90;;;;;;4424666;28;657041;-68
2022/04/21 03:38:01;;;;;;;84.47;41.63;;;3.40;99.90;;;;;;4445810;28;656368;-68
2022/04/21 03:40:48;;;;;;;86.53;43.80;;;3.40;99.90;;;;;;4426136;28;656308;-68
2022/04/21 03:43:35;;;;;;;88.83;44.43;;;3.50;99.90;;;;;;4430407;28;656043;-68
2022/04/21 03:46:23;;;;;;;80.93;43.27;;;3.50;99.90;;;;;;4449381;28;656360;-68
2022/04/21 03:49:10;;;;;;;81.93;42.60;;;3.50;99.90;;;;;;4428431;28;655421;-68
2022/04/21 03:51:58;;;;;;;81.27;43.13;;;3.50;99.90;;;;;;4444430;28;656324;-68
2022/04/21 03:54:47;;;;;;;88.20;45.57;;;3.50;99.90;;;;;;4429716;28;656075;-68
2022/04/21 03:57:34;;;;;;;89.90;45.07;;;3.50;99.90;;;;;;4443873;28;655348;-68
2022/04/21 04:00:22;;;;;;;88.80;44.10;;;3.60;99.90;;;;;;4431696;28;655292;-68
2022/04/21 04:03:09;;;;;;;81.73;42.60;;;3.60;99.90;;;;;;4446194;28;655333;-68
2022/04/21 04:05:56;;;;;;;85.33;43.23;;;3.60;99.90;;;;;;4427261;28;655462;-68
2022/04/21 04:11:51;;;;;;;77.57;40.80;;;3.60;99.90;;;;;;4425850;28;655865;-68
2022/04/21 04:14:38;;;;;;;82.67;41.37;;;3.60;99.90;;;;;;4429732;28;656107;-68
2022/04/21 04:17:25;;;;;;;78.47;40.73;;;3.60;99.90;;;;;;4421033;28;655961;-68
2022/04/21 04:20:13;;;;;;;84.80;42.33;;;3.60;99.90;;;;;;4439312;28;656000;-68
2022/04/21 04:23:00;;;;;;;77.95;41.05;;;3.70;99.90;;;;;;4424743;28;655819;-68
2022/04/21 04:25:48;;;;;;;75.77;40.93;;;3.70;99.90;;;;;;4437141;28;656694;-68
2022/04/21 04:28:37;;;;;;;82.47;42.63;;;3.70;99.90;;;;;;4432297;28;655471;-68
2022/04/21 04:31:25;;;;;;;83.17;44.13;;;3.80;99.90;;;;;;4446391;28;654942;-68
2022/04/21 04:34:12;;;;;;;81.13;43.33;;;3.70;99.90;;;;;;4420963;28;655885;-68
2022/04/21 04:36:59;;;;;;;79.20;41.40;;;3.80;99.90;;;;;;4440745;28;656029;-68
2022/04/21 04:39:47;;;;;;;86.47;44.70;;;3.80;99.90;;;;;;4421821;28;655393;-68
2022/04/21 04:42:34;;;;;;;79.23;43.27;;;3.90;99.90;;;;;;4441645;28;655462;-68
2022/04/21 04:48:28;;;;;;;84.67;43.27;;;4.00;99.90;;;;;;4396178;28;656190;-68
2022/04/21 04:51:16;;;;;;;80.13;40.97;;;4.10;99.90;;;;;;4414370;28;655468;-68
2022/04/21 04:54:18;;;;;;;79.87;41.93;;;4.10;99.90;;;;;;4447103;28;656139;-68
2022/04/21 04:57:06;;;;;;;84.27;42.63;;;4.20;99.90;;;;;;4400874;28;655074;-68
2022/04/21 04:59:53;;;;;;;81.83;43.17;;;4.30;99.90;;;;;;4441039;28;656614;-68
2022/04/21 05:02:42;;;;;;;81.20;44.13;;;4.30;99.90;;;;;;4420299;28;655540;-68
2022/04/21 05:05:29;;;;;;;84.27;45.43;;;4.40;99.90;;;;;;4438419;28;655589;-68
2022/04/21 05:08:16;;;;;;;80.80;42.90;;;4.40;99.90;;;;;;4420016;28;655850;-68
2022/04/21 05:11:04;;;;;;;81.30;41.63;;;4.50;99.90;;;;;;4442490;28;655567;-68
2022/04/21 05:13:51;;;;;;;80.00;43.33;;;4.50;99.90;;;;;;4424645;28;655851;-68
2022/04/21 05:16:39;;;;;;;78.07;42.13;;;4.60;99.90;;;;;;4455386;28;656249;-68
2022/04/21 05:19:28;;;;;;;79.20;41.70;;;4.70;99.90;;;;;;4428273;28;655361;-68
2022/04/21 05:22:16;;;;;;;70.73;38.53;;;4.80;99.90;;;;;;4430319;28;655627;-68
2022/04/21 05:25:03;;;;;;;66.17;36.17;;;5.00;99.90;;;;;;4460199;28;656043;-68
2022/04/21 05:27:51;;;;;;;63.07;33.93;;;5.00;99.90;;;;;;4442760;28;655754;-68
2022/04/21 05:30:58;;;;;;;75.03;38.23;;;5.10;99.90;;;;;;4448412;28;656148;-68
2022/04/21 05:33:46;;;;;;;58.90;30.27;;;5.30;99.90;;;;;;4410783;28;655794;-67
2022/04/21 05:36:35;;;;;;;67.07;34.63;;;5.10;99.90;;;;;;4432415;28;655663;-68
2022/04/21 05:39:23;;;;;;;68.50;37.30;;;5.00;99.90;;;;;;4417786;28;656040;-68
2022/04/21 05:42:11;;;;;;;89.97;44.87;;;5.10;99.90;;;;;;4424407;28;655168;-68
2022/04/21 05:44:59;;;;;;;105.03;50.50;;;5.10;99.90;;;;;;4444413;28;655815;-68
2022/04/21 05:47:47;;;;;;;95.73;51.07;;;5.20;99.90;;;;;;4432802;28;656716;-68
2022/04/21 05:50:34;;;;;;;102.65;50.85;;;5.10;99.90;;;;;;4449738;28;655671;-68
2022/04/21 05:53:51;;;;;;;106.07;53.13;;;5.10;99.90;;;;;;4421058;28;657460;-68
2022/04/21 05:56:39;;;;;;;89.27;46.97;;;5.10;99.90;;;;;;4421715;28;657091;-68
2022/04/21 05:59:26;;;;;;;95.23;47.87;;;5.10;99.90;;;;;;4427319;28;655516;-67
2022/04/21 06:02:13;;;;;;;87.10;43.93;;;5.30;99.90;;;;;;4450948;28;655756;-68
2022/04/21 06:05:01;;;;;;;60.83;32.30;;;5.60;99.90;;;;;;4426347;28;655569;-67
2022/04/21 06:07:48;;;;;;;85.37;43.20;;;5.50;99.90;;;;;;4445276;28;655810;-67
2022/04/21 06:10:37;;;;;;;69.77;33.27;;;5.50;99.90;;;;;;4429185;28;655741;-68
2022/04/21 06:13:24;;;;;;;46.27;22.60;;;5.60;99.90;;;;;;4447610;28;655162;-68
2022/04/21 06:16:12;;;;;;;85.37;44.90;;;5.50;99.90;;;;;;4426455;28;655664;-67
2022/04/21 06:18:59;;;;;;;92.43;45.47;;;5.50;99.90;;;;;;4446662;28;656015;-68
2022/04/21 06:21:46;;;;;;;59.63;32.30;;;5.70;99.90;;;;;;4428065;28;655705;-68
2022/04/21 06:24:52;;;;;;;85.77;43.40;;;5.50;99.90;;;;;;4454845;28;656050;-68
2022/04/21 06:27:41;;;;;;;84.43;41.87;;;5.70;99.90;;;;;;4425160;28;655716;-68
2022/04/21 06:30:43;;;;;;;82.00;39.83;;;5.70;99.90;;;;;;4420865;28;656112;-68
2022/04/21 06:33:33;;;;;;;66.90;33.90;;;5.90;99.90;;;;;;4406106;28;655608;-68
2022/04/21 06:36:20;;;;;;;77.73;38.83;;;6.00;99.90;;;;;;4425100;28;655355;-68
2022/04/21 06:39:08;;;;;;;67.47;32.73;;;6.20;99.90;;;;;;4435457;28;656147;-68
2022/04/21 06:42:19;;;;;;;69.97;36.30;;;6.50;99.90;;;;;;4422865;28;657155;-68
2022/04/21 06:48:46;;;;;;;77.80;36.73;;;6.10;99.90;;;;;;4436942;28;655710;-68
2022/04/21 06:51:33;;;;;;;71.23;36.17;;;6.30;99.90;;;;;;4411947;28;655633;-68
2022/04/21 06:54:30;;;;;;;45.50;20.83;;;6.70;99.90;;;;;;4424596;28;656099;-68
2022/04/21 06:57:18;;;;;;;65.43;32.33;;;6.60;99.90;;;;;;4406687;28;655464;-68
2022/04/21 07:00:06;;;;;;;43.30;23.63;;;6.80;99.90;;;;;;4426763;28;655502;-68
2022/04/21 07:02:56;;;;;;;66.17;31.23;;;6.90;99.90;;;;;;4445315;28;655989;-68
2022/04/21 07:06:14;;;;;;;58.90;28.90;;;7.00;99.90;;;;;;4418618;28;656807;-68
2022/04/21 07:09:01;;;;;;;45.50;22.77;;;7.50;99.90;;;;;;4400012;28;656711;-68
2022/04/21 07:11:49;;;;;;;33.00;15.40;;;7.70;99.90;;;;;;4442338;28;655752;-68
2022/04/21 07:14:48;;;;;;;49.43;23.67;;;7.40;99.90;;;;;;4429975;28;655926;-68
2022/04/21 07:17:35;;;;;;;54.20;27.63;;;7.40;99.90;;;;;;4430418;28;655387;-68
2022/04/21 07:20:24;;;;;;;46.63;26.60;;;7.50;99.90;;;;;;4439232;28;655404;-68
2022/04/21 07:23:12;;;;;;;53.63;24.80;;;7.40;99.90;;;;;;4422883;28;656117;-68
2022/04/21 07:25:59;;;;;;;49.03;26.90;;;7.30;99.90;;;;;;4437831;28;655256;-68
2022/04/21 07:28:46;;;;;;;47.70;24.10;;;7.70;99.90;;;;;;4418835;28;655660;-68
2022/04/21 07:31:35;;;;;;;37.77;20.13;;;7.80;99.90;;;;;;4439823;28;655977;-68
2022/04/21 07:34:22;;;;;;;29.33;11.63;;;7.70;99.90;;;;;;4433393;28;656143;-68
2022/04/21 07:37:11;;;;;;;50.27;27.13;;;7.60;99.90;;;;;;4448544;28;655590;-68
2022/04/21 07:40:07;;;;;;;35.80;12.60;;;7.60;99.90;;;;;;4415859;28;655667;-68
2022/04/21 07:42:55;;;;;;;37.47;19.07;;;7.60;99.90;;;;;;4420592;28;656924;-68
2022/04/21 07:45:44;;;;;;;37.67;21.20;;;7.70;99.90;;;;;;4422220;28;656406;-68
2022/04/21 07:51:33;;;;;;;30.10;13.93;;;8.50;99.90;;;;;;4403057;28;656350;-68
2022/04/21 07:54:22;;;;;;;35.57;20.37;;;8.20;99.90;;;;;;4437498;28;655878;-68
2022/04/21 07:57:09;;;;;;;41.50;22.20;;;8.10;99.90;;;;;;4444123;28;655546;-68
2022/04/21 07:59:56;;;;;;;35.55;18.45;;;8.10;99.90;;;;;;4418538;28;655895;-68
2022/04/21 08:02:44;;;;;;;30.03;16.33;;;8.10;99.90;;;;;;4453086;28;655587;-68
2022/04/21 08:05:32;;;;;;;34.03;19.77;;;8.40;99.90;;;;;;4431668;28;656608;-68
2022/04/21 08:08:19;;;;;;;36.43;20.37;;;8.90;99.90;;;;;;4449621;28;655167;-68
2022/04/21 08:11:08;;;;;;;28.00;15.67;;;9.20;99.90;;;;;;4423374;28;655836;-68
2022/04/21 08:13:56;;;;;;;20.57;11.00;;;9.00;99.90;;;;;;4429315;28;655804;-68
2022/04/21 08:16:43;;;;;;;38.57;21.73;;;8.70;99.90;;;;;;4454750;28;656708;-68
2022/04/21 08:19:31;;;;;;;36.40;20.33;;;8.60;99.90;;;;;;4431322;28;655993;-68
2022/04/21 08:22:18;;;;;;;31.13;19.70;;;8.60;99.90;;;;;;4451619;28;655190;-68
2022/04/21 08:34:22;;;;;;;34.90;19.67;;;8.40;99.90;;;;;;4428326;28;655506;-68
2022/04/21 08:37:09;;;;;;;39.13;21.37;;;8.30;99.90;;;;;;4445812;28;655675;-68
2022/04/21 08:39:56;;;;;;;34.33;18.33;;;8.50;99.90;;;;;;4424723;28;655970;-68
2022/04/21 08:42:44;;;;;;;29.70;17.70;;;8.70;99.90;;;;;;4452974;28;655459;-67
2022/04/21 08:45:33;;;;;;;31.80;17.20;;;8.90;99.90;;;;;;4430530;28;655823;-68
2022/04/21 08:48:21;;;;;;;28.20;15.73;;;9.20;99.90;;;;;;4428551;28;655706;-68
2022/04/21 08:51:09;;;;;;;30.90;16.20;;;9.00;99.90;;;;;;4445665;28;656007;-68
2022/04/21 08:53:56;;;;;;;28.27;17.07;;;9.00;99.90;;;;;;4425422;28;656183;-68
2022/04/21 08:56:43;;;;;;;32.67;17.53;;;9.40;99.90;;;;;;4448879;28;657817;-68
2022/04/21 08:59:31;;;;;;;39.43;19.13;;;9.30;99.90;;;;;;4426794;28;655940;-68
2022/04/21 09:02:19;;;;;;;26.97;17.23;;;10.30;99.90;;;;;;4450963;28;655477;-68
2022/04/21 09:05:07;;;;;;;32.60;17.63;;;10.70;99.90;;;;;;4424950;28;657866;-68
2022/04/21 09:07:55;;;;;;;34.03;18.77;;;10.10;99.90;;;;;;4442514;28;658369;-68
2022/04/21 09:10:42;;;;;;;27.10;16.37;;;10.30;99.90;;;;;;4424824;28;657628;-68
2022/04/21 09:13:34;;;;;;;37.15;18.40;;;10.40;96.80;;;;;;4446214;28;657185;-68
2022/04/21 09:16:23;;;;;;;26.73;15.03;;;10.10;99.90;;;;;;4424199;28;656595;-68
2022/04/21 09:19:12;;;;;;;25.10;13.40;;;10.20;98.50;;;;;;4436685;28;656450;-68
2022/04/21 09:22:00;;;;;;;28.10;15.07;;;10.10;96.60;;;;;;4448287;28;656443;-68
2022/04/21 09:24:47;;;;;;;17.57;10.90;;;9.50;99.90;;;;;;4425901;28;657393;-68
2022/04/21 09:27:41;;;;;;;22.57;11.33;;;9.50;99.90;;;;;;4448598;28;656428;-68
2022/04/21 09:30:29;;;;;;;25.07;15.20;;;9.20;99.90;;;;;;4426176;28;655312;-68
2022/04/21 09:33:17;;;;;;;19.30;12.30;;;9.10;99.90;;;;;;4427165;28;656068;-68
2022/04/21 09:36:06;;;;;;;23.98;12.25;;;9.30;99.90;;;;;;4441787;28;655398;-68
2022/04/21 09:39:01;;;;;;;23.33;12.60;;;9.20;99.90;;;;;;4426043;28;656234;-68
2022/04/21 09:41:52;;;;;;;22.23;13.00;;;9.40;97.80;;;;;;4425536;28;655762;-68
2022/04/21 09:47:44;;;;;;;21.23;11.82;;;9.40;99.40;;;;;;4424869;28;655769;-68
2022/04/21 09:50:33;;;;;;;19.77;12.10;;;9.30;99.50;;;;;;4427348;28;655595;-68
2022/04/21 09:53:23;;;;;;;20.42;11.68;;;9.30;98.20;;;;;;4429659;28;655846;-68
2022/04/21 09:56:10;;;;;;;23.52;12.02;;;9.40;99.90;;;;;;4427832;28;655501;-68
2022/04/21 09:58:58;;;;;;;17.83;9.80;;;9.70;97.40;;;;;;4445926;28;656906;-68
2022/04/21 10:01:45;;;;;;;25.57;10.93;;;9.80;95.60;;;;;;4430768;28;654109;-68
2022/04/21 10:04:33;;;;;;;16.73;9.53;;;10.20;93.50;;;;;;4446459;28;656361;-68
2022/04/21 10:07:20;;;;;;;21.23;10.23;;;10.00;87.60;;;;;;4429890;28;655478;-68
2022/04/21 10:10:10;;;;;;;12.07;7.53;;;10.60;91.30;;;;;;4441098;28;657958;-68
2022/04/21 10:12:59;;;;;;;12.80;8.57;;;10.60;71.70;;;;;;4418932;28;655440;-68
2022/04/21 10:15:47;;;;;;;17.67;10.30;;;10.80;87.40;;;;;;4425909;28;655875;-68
2022/04/21 10:18:34;;;;;;;20.93;10.33;;;10.70;76.50;;;;;;4446963;28;656003;-69
2022/04/21 10:21:27;;;;;;;14.93;9.07;;;10.50;86.20;;;;;;4426272;28;656463;-68
2022/04/21 10:24:14;;;;;;;16.00;8.03;;;10.70;73.70;;;;;;4424905;28;655229;-68
2022/04/21 10:27:03;;;;;;;13.57;8.93;;;10.60;72.90;;;;;;4424342;28;655685;-68
2022/04/21 10:29:51;;;;;;;7.50;4.53;;;11.00;85.00;;;;;;4417488;28;655503;-68
2022/04/21 10:32:48;;;;;;;14.50;8.80;;;10.60;79.50;;;;;;4443808;28;655124;-68
2022/04/21 10:35:49;;;;;;;17.03;8.47;;;10.70;79.80;;;;;;4399449;28;655703;-68
2022/04/21 10:38:36;;;;;;;11.77;7.70;;;11.30;86.60;;;;;;4398478;28;655885;-68
2022/04/21 10:41:35;;;;;;;17.60;8.87;;;11.30;68.20;;;;;;4445794;28;655767;-68
2022/04/21 10:44:28;;;;;;;13.63;7.37;;;11.60;70.40;;;;;;4408150;28;655815;-68
2022/04/21 10:47:37;;;;;;;10.88;7.40;;;11.50;66.10;;;;;;4427201;28;656096;-68
2022/04/21 10:50:30;;;;;;;12.33;7.93;;;12.60;60.80;;;;;;4420690;28;655198;-68
2022/04/21 10:59:30;;;;;;;11.00;7.90;;;11.40;65.50;;;;;;4399145;28;656426;-68
2022/04/21 11:02:17;;;;;;;12.87;8.13;;;11.40;68.60;;;;;;4416262;28;656397;-68
2022/04/21 11:05:26;;;;;;;17.07;8.17;;;11.60;62.10;;;;;;4438877;28;655700;-68
2022/04/21 11:08:14;;;;;;;14.03;8.07;;;11.60;62.00;;;;;;4424123;28;655777;-68
2022/04/21 11:11:01;;;;;;;13.87;8.70;;;11.40;61.60;;;;;;4428463;28;655198;-68
2022/04/21 11:13:51;;;;;;;13.67;8.93;;;11.40;62.50;;;;;;4445788;28;656517;-68
2022/04/21 11:16:48;;;;;;;12.50;8.23;;;11.70;61.00;;;;;;4421576;28;656224;-68
2022/04/21 11:19:40;;;;;;;14.53;9.00;;;12.50;67.80;;;;;;4404071;28;655509;-68
2022/04/21 11:22:45;;;;;;;17.47;10.80;;;12.70;64.30;;;;;;4426517;28;656270;-68
2022/04/21 11:25:33;;;;;;;15.33;9.50;;;13.40;58.60;;;;;;4400629;28;656846;-69
2022/04/21 11:28:24;;;;;;;15.67;10.57;;;12.70;56.00;;;;;;4432920;28;656160;-68
2022/04/21 11:31:11;;;;;;;17.93;9.43;;;12.70;58.40;;;;;;4421366;28;657050;-68
2022/04/21 11:34:03;;;;;;;13.47;9.10;;;12.50;58.60;;;;;;4449583;28;656282;-68
2022/04/21 11:36:53;;;;;;;35.87;16.00;;;12.40;60.60;;;;;;4400270;28;656113;-69
2022/04/21 11:39:40;;;;;;;22.37;11.70;;;12.60;57.80;;;;;;4424771;28;656450;-68
2022/04/21 11:42:28;;;;;;;15.43;10.00;;;12.40;57.40;;;;;;4443718;28;657431;-68
2022/04/21 11:45:19;;;;;;;19.60;11.43;;;12.20;64.30;;;;;;4431702;28;656884;-68
2022/04/21 11:48:13;;;;;;;17.23;10.83;;;12.30;63.30;;;;;;4417223;28;656784;-68
2022/04/21 11:51:02;;;;;;;14.10;9.87;;;12.50;64.80;;;;;;4397035;28;656634;-68
2022/04/21 11:53:49;;;;;;;16.67;9.75;;;12.50;61.40;;;;;;4447541;28;655064;-68
2022/04/21 11:56:36;;;;;;;25.57;13.07;;;12.70;70.00;;;;;;4420951;28;655468;-68
2022/04/21 11:59:34;;;;;;;18.67;10.87;;;12.50;61.90;;;;;;4437411;28;656598;-69
2022/04/21 12:08:35;;;;;;;24.25;12.95;;;11.90;65.30;;;;;;4415427;28;656963;-68
2022/04/21 12:11:23;;;;;;;21.50;12.67;;;11.80;63.80;;;;;;4411307;28;657255;-68
2022/04/21 12:14:10;;;;;;;22.20;10.57;;;12.00;71.50;;;;;;4423132;28;656268;-68
2022/04/21 12:16:58;;;;;;;14.03;9.23;;;11.90;62.90;;;;;;4436026;28;657512;-68
2022/04/21 12:19:46;;;;;;;17.80;9.40;;;11.60;63.00;;;;;;4419543;28;657488;-68
2022/04/21 12:22:33;;;;;;;14.07;7.90;;;11.70;66.10;;;;;;4441607;28;656114;-68
2022/04/21 12:25:28;;;;;;;14.47;9.63;;;11.90;62.20;;;;;;4422366;28;655530;-68
2022/04/21 12:28:16;;;;;;;15.73;9.37;;;12.00;65.40;;;;;;4399915;28;656168;-68
2022/04/21 12:31:07;;;;;;;16.53;10.20;;;11.90;63.90;;;;;;4445472;28;656500;-68
2022/04/21 12:33:55;;;;;;;14.73;10.50;;;12.10;67.80;;;;;;4422319;28;656452;-67
2022/04/21 12:36:53;;;;;;;17.40;10.97;;;12.00;72.80;;;;;;4448751;28;657198;-68
2022/04/21 12:39:40;;;;;;;15.03;9.70;;;12.20;62.80;;;;;;4414417;28;656592;-68
2022/04/21 12:42:29;;;;;;;15.13;9.40;;;12.00;61.40;;;;;;4450319;28;656915;-68
2022/04/21 12:45:16;;;;;;;16.07;8.97;;;12.10;70.80;;;;;;4422819;28;655608;-68
2022/04/21 12:48:12;;;;;;;15.27;9.17;;;11.90;61.30;;;;;;4447569;28;655462;-68
2022/04/21 12:51:00;;;;;;;17.73;10.47;;;11.80;69.40;;;;;;4431272;28;655675;-68
2022/04/21 12:53:55;;;;;;;17.60;9.63;;;12.40;70.50;;;;;;4430303;28;656942;-68
2022/04/21 12:56:44;;;;;;;18.67;11.17;;;12.00;66.50;;;;;;4398878;28;655584;-68
2022/04/21 12:59:33;;;;;;;25.33;10.37;;;11.70;68.20;;;;;;4434004;28;656295;-68
2022/04/21 13:02:20;;;;;;;16.43;9.90;;;11.80;66.20;;;;;;4427154;28;656379;-68
2022/04/21 13:05:08;;;;;;;19.47;11.57;;;11.80;76.70;;;;;;4461581;28;657045;-68
2022/04/21 13:07:55;;;;;;;18.20;10.83;;;11.80;71.50;;;;;;4437807;28;656837;-68
2022/04/21 13:10:43;;;;;;;19.93;11.33;;;11.60;71.10;;;;;;4456310;28;657639;-68
2022/04/21 13:13:30;;;;;;;18.20;10.63;;;11.50;75.80;;;;;;4436863;28;656509;-68
2022/04/21 13:16:19;;;;;;;20.07;10.83;;;11.50;77.30;;;;;;4444759;28;657161;-68
2022/04/21 13:19:07;;;;;;;22.50;10.77;;;11.40;83.30;;;;;;4421141;28;657011;-68
2022/04/21 13:21:55;;;;;;;19.40;11.17;;;11.40;75.10;;;;;;4442404;28;656924;-68
2022/04/21 13:24:42;;;;;;;20.73;10.80;;;11.10;76.20;;;;;;4429087;28;657405;-68
2022/04/21 13:27:32;;;;;;;19.37;10.77;;;11.30;81.30;;;;;;4444872;28;656405;-68
2022/04/21 13:30:19;;;;;;;18.23;10.13;;;11.50;69.00;;;;;;4445090;28;657586;-68
2022/04/21 13:33:22;;;;;;;17.50;9.53;;;11.00;76.80;;;;;;4420044;28;656370;-68
2022/04/21 13:36:10;;;;;;;16.33;9.50;;;11.00;79.60;;;;;;4420637;28;655469;-68
2022/04/21 13:38:58;;;;;;;18.53;10.53;;;11.20;81.20;;;;;;4429141;28;657218;-68
2022/04/21 13:41:46;;;;;;;17.27;9.57;;;11.30;77.60;;;;;;4438172;28;656605;-68
2022/04/21 13:44:34;;;;;;;19.33;10.17;;;11.30;83.80;;;;;;4448394;28;655514;-68
2022/04/21 13:47:21;;;;;;;20.40;10.20;;;11.30;82.20;;;;;;4428581;28;656720;-68
2022/04/21 13:50:10;;;;;;;18.57;11.00;;;11.40;84.50;;;;;;4445131;28;657404;-68
2022/04/21 13:52:58;;;;;;;16.43;10.03;;;11.30;88.40;;;;;;4427387;28;657476;-68
2022/04/21 13:55:46;;;;;;;20.47;9.73;;;11.10;79.00;;;;;;4427449;28;657233;-67
2022/04/21 13:58:33;;;;;;;17.40;10.37;;;11.00;91.60;;;;;;4453150;28;656141;-68
2022/04/21 14:01:21;;;;;;;18.08;10.80;;;11.00;88.70;;;;;;4428953;28;656787;-68
2022/04/21 14:04:08;;;;;;;16.13;10.03;;;11.00;94.00;;;;;;4442313;28;656677;-68
2022/04/21 14:06:57;;;;;;;22.23;10.00;;;11.30;94.90;;;;;;4426970;28;656967;-68
2022/04/21 14:09:45;;;;;;;20.13;10.57;;;11.20;97.30;;;;;;4444656;28;656959;-68
2022/04/21 14:12:32;;;;;;;19.03;10.53;;;11.30;97.60;;;;;;4427017;28;657600;-68
2022/04/21 14:15:20;;;;;;;18.27;10.17;;;11.00;89.70;;;;;;4450275;28;656782;-68
2022/04/21 14:18:07;;;;;;;21.03;10.07;;;11.10;95.50;;;;;;4421824;28;657846;-68
2022/04/21 14:20:55;;;;;;;23.63;10.30;;;11.00;95.70;;;;;;4443110;28;656438;-68
2022/04/21 14:23:44;;;;;;;18.90;9.63;;;10.90;96.00;;;;;;4449972;28;657706;-68
2022/04/21 14:26:31;;;;;;;18.43;11.33;;;11.00;99.90;;;;;;4425725;28;655335;-68
2022/04/21 14:29:19;;;;;;;18.40;9.97;;;11.00;96.40;;;;;;4442057;28;657517;-68
2022/04/21 14:32:09;;;;;;;17.53;10.10;;;11.00;96.40;;;;;;4422032;28;656908;-67
2022/04/21 14:34:56;;;;;;;17.47;9.33;;;10.90;97.40;;;;;;4424471;28;657697;-67
2022/04/21 14:44:07;;;;;;;21.67;10.80;;;10.60;99.90;;;;;;4425095;28;657993;-67
2022/04/21 14:46:56;;;;;;;21.87;10.30;;;10.50;99.90;;;;;;4444383;28;657991;-67
2022/04/21 14:49:43;;;;;;;22.33;10.40;;;10.50;99.90;;;;;;4421398;28;657790;-67
2022/04/21 14:52:30;;;;;;;17.53;10.10;;;10.40;99.90;;;;;;4427413;28;657610;-67
2022/04/21 14:55:18;;;;;;;18.27;9.20;;;10.40;99.90;;;;;;4447179;28;659356;-65
2022/04/21 14:58:07;;;;;;;20.40;10.65;;;10.20;99.90;;;;;;4425985;28;656618;-65
2022/04/21 15:00:54;;;;;;;18.60;10.20;;;10.20;99.90;;;;;;4439459;28;657186;-65
2022/04/21 15:03:41;;;;;;;18.90;10.73;;;10.10;99.90;;;;;;4417132;28;657868;-65
2022/04/21 15:06:29;;;;;;;21.57;10.77;;;10.00;99.90;;;;;;4444517;28;657988;-65
2022/04/21 15:09:16;;;;;;;23.70;13.23;;;10.20;99.90;;;;;;4429190;28;657466;-65
2022/04/21 15:12:04;;;;;;;22.97;11.63;;;10.10;99.90;;;;;;4441320;28;657760;-65